Hicks, Arkansas
Current Conditions -  °F | °C
As of 2:53 PM on Friday 28 Nov 2014 (Local Time) from KFYV Reporting Station
Clear Clear  
Wind Chill: 60°   Ceiling: Unl
Heat Index: 60°   Visibility: 10mi
Dew Point: 36°   Wind: 20mph
Humidity: 41%   Direction: 200°SSW
Pressure: 29.98"   Gusts: 28mph
Location:  35.9902°N, 94.083°W
Report Text: KFYV 282053Z 20017G24KT 10SM CLR 16/02 A2998 RMK AO2 PK WND 20028/2006 SLP152 T01560022 56037
Loading
Personal Weather Stations






























Interactive Weather Map New forecast layout! Learn more

10-Day Weather Forecast

Advertisements
Track Severe Weather on mobile